CWW weather

Corowa Airport
New South Wales, Australia

Public forecast

Using degrees Celsius for public forecast. Weather courtesy of forecast.io.

METAR (pilot weather report)

Closest report is Wangaratta Airport, 25.4 nm (47.0 km) S. Retrieved 2019/03/25 20:00 UTC (43 seconds ago):

YWGT 252000Z AUTO 26006KT 9999 // NCD 09/03 Q1018

TAF (pilot weather forecast)

Closest forecast is Wangaratta Airport, 25.4 nm (47.0 km) S. Retrieved 2019/03/25 19:03 UTC (58 minutes ago):

TAF YWGT 251724Z 2519/2608 28006KT 9999 FEW045 FM252300 24012KT 9999 SCT045 FM260700 20007KT CAVOK